Check out our new PWSWeather beta!
PWSweather.com
Personal Weather Stations
Station Observations
METEOC500
Santo Antonio, FunchalPT 2020

Santo AntonioFunchalPT 2020

Lat: 32.678227, Lon: -16.945054

Elevation: 1669.94751

Station Type: WH Series

High Low Average
Temperature 69.6°F20.9°C 59.9°F15.5°C 64.6°F18.1°C
Dew Point 63.5°F17.5°C 54.0°F12.2°C 59.7°F15.4°C
Winds 9.2 mph 14.8 kmh Calm Calm 4.0 mph SW6.4 kmh SW
Wind Gusts 12.5 mph20.1 kmh 2.5 mph4.0 kmh 9.0 mph14.5 kmh
Humidity 93% 76% 84%
Pressure 30.21 in1023.0 mb 30.13 in1020.3 mb -
Precipitation 0.00 in0.0 mm - -
Hour Temp Dew Point Humidity Winds Wind Gusts Pressure Precip Precip Rate Daily Precip Total
12:13 AM 61.9°F16.6°C 57.4°F14.1°C 85% 6.0 mph NNW9.7 kmh NNW 12.5 mph20.1 kmh 30.16 in1021.3 mb 0.00 in0.0 mm 0.00 in0.0 mm 0.00 in0.0 mm
12:28 AM 61.7°F16.5°C 56.8°F13.8°C 84% 6.5 mph NNW10.5 kmh NNW 12.5 mph20.1 kmh 30.16 in1021.3 mb 0.00 in0.0 mm 0.00 in0.0 mm 0.00 in0.0 mm
12:43 AM 61.5°F16.4°C 56.7°F13.7°C 84% 4.7 mph NNW7.6 kmh NNW 7.6 mph12.2 kmh 30.16 in1021.3 mb 0.00 in0.0 mm 0.00 in0.0 mm 0.00 in0.0 mm
12:58 AM 61.2°F16.2°C 56.3°F13.5°C 84% 6.9 mph NNW11.1 kmh NNW 10.1 mph16.3 kmh 30.16 in1021.3 mb 0.00 in0.0 mm 0.00 in0.0 mm 0.00 in0.0 mm
01:13 AM 61.2°F16.2°C 55.9°F13.3°C 83% 5.6 mph NNW9.0 kmh NNW 10.1 mph16.3 kmh 30.16 in1021.3 mb 0.00 in0.0 mm 0.00 in0.0 mm 0.00 in0.0 mm
01:28 AM 61.2°F16.2°C 56.3°F13.5°C 84% 4.7 mph N7.6 kmh N 10.1 mph16.3 kmh 30.15 in1021.0 mb 0.00 in0.0 mm 0.00 in0.0 mm 0.00 in0.0 mm
01:43 AM 61.3°F16.3°C 56.1°F13.4°C 83% 5.4 mph NW8.7 kmh NW 10.1 mph16.3 kmh 30.15 in1021.0 mb 0.00 in0.0 mm 0.00 in0.0 mm 0.00 in0.0 mm
01:58 AM 61.5°F16.4°C 55.6°F13.1°C 81% 9.2 mph NNW14.8 kmh NNW 12.5 mph20.1 kmh 30.15 in1021.0 mb 0.00 in0.0 mm 0.00 in0.0 mm 0.00 in0.0 mm
02:13 AM 61.5°F16.4°C 55.9°F13.3°C 82% 8.5 mph NNW13.7 kmh NNW 12.5 mph20.1 kmh 30.14 in1020.7 mb 0.00 in0.0 mm 0.00 in0.0 mm 0.00 in0.0 mm
02:28 AM 61.5°F16.4°C 55.2°F12.9°C 80% 9.2 mph NNW14.8 kmh NNW 12.5 mph20.1 kmh 30.14 in1020.7 mb 0.00 in0.0 mm 0.00 in0.0 mm 0.00 in0.0 mm
02:43 AM 61.3°F16.3°C 55.0°F12.8°C 80% 4.5 mph NNW7.2 kmh NNW 10.1 mph16.3 kmh 30.14 in1020.7 mb 0.00 in0.0 mm 0.00 in0.0 mm 0.00 in0.0 mm
02:58 AM 60.8°F16.0°C 54.9°F12.7°C 81% 5.6 mph NW9.0 kmh NW 10.1 mph16.3 kmh 30.14 in1020.7 mb 0.00 in0.0 mm 0.00 in0.0 mm 0.00 in0.0 mm
03:13 AM 60.6°F15.9°C 54.5°F12.5°C 80% 5.4 mph NNW8.7 kmh NNW 12.5 mph20.1 kmh 30.14 in1020.7 mb 0.00 in0.0 mm 0.00 in0.0 mm 0.00 in0.0 mm
03:28 AM 61.2°F16.2°C 54.9°F12.7°C 80% 6.5 mph NW10.5 kmh NW 10.1 mph16.3 kmh 30.13 in1020.3 mb 0.00 in0.0 mm 0.00 in0.0 mm 0.00 in0.0 mm
03:43 AM 61.3°F16.3°C 54.9°F12.7°C 79% 4.9 mph NNW7.9 kmh NNW 10.1 mph16.3 kmh 30.13 in1020.3 mb 0.00 in0.0 mm 0.00 in0.0 mm 0.00 in0.0 mm
03:58 AM 61.0°F16.1°C 54.1°F12.3°C 78% 6.0 mph NNW9.7 kmh NNW 12.5 mph20.1 kmh 30.13 in1020.3 mb 0.00 in0.0 mm 0.00 in0.0 mm 0.00 in0.0 mm
04:14 AM 61.0°F16.1°C 54.1°F12.3°C 78% 6.5 mph NNW10.5 kmh NNW 10.1 mph16.3 kmh 30.13 in1020.3 mb 0.00 in0.0 mm 0.00 in0.0 mm 0.00 in0.0 mm
04:29 AM 61.2°F16.2°C 54.7°F12.6°C 79% 4.7 mph NNW7.6 kmh NNW 10.1 mph16.3 kmh 30.13 in1020.3 mb 0.00 in0.0 mm 0.00 in0.0 mm 0.00 in0.0 mm
04:44 AM 61.0°F16.1°C 54.7°F12.6°C 80% 3.1 mph NNW5.0 kmh NNW 10.1 mph16.3 kmh 30.13 in1020.3 mb 0.00 in0.0 mm 0.00 in0.0 mm 0.00 in0.0 mm
04:59 AM 61.0°F16.1°C 54.7°F12.6°C 80% 4.0 mph N6.4 kmh N 7.6 mph12.2 kmh 30.13 in1020.3 mb 0.00 in0.0 mm 0.00 in0.0 mm 0.00 in0.0 mm
05:14 AM 60.6°F15.9°C 55.4°F13.0°C 83% 1.8 mph NW2.9 kmh NW 7.6 mph12.2 kmh 30.13 in1020.3 mb 0.00 in0.0 mm 0.00 in0.0 mm 0.00 in0.0 mm
05:29 AM 60.1°F15.6°C 54.0°F12.2°C 80% 6.0 mph NW9.7 kmh NW 7.6 mph12.2 kmh 30.13 in1020.3 mb 0.00 in0.0 mm 0.00 in0.0 mm 0.00 in0.0 mm
05:44 AM 59.9°F15.5°C 54.7°F12.6°C 83% 4.5 mph NNW7.2 kmh NNW 7.6 mph12.2 kmh 30.14 in1020.7 mb 0.00 in0.0 mm 0.00 in0.0 mm 0.00 in0.0 mm
05:59 AM 59.9°F15.5°C 54.7°F12.6°C 83% 4.7 mph NNW7.6 kmh NNW 7.6 mph12.2 kmh 30.14 in1020.7 mb 0.00 in0.0 mm 0.00 in0.0 mm 0.00 in0.0 mm
06:14 AM 59.9°F15.5°C 54.1°F12.3°C 81% 4.9 mph NNW7.9 kmh NNW 7.6 mph12.2 kmh 30.14 in1020.7 mb 0.00 in0.0 mm 0.00 in0.0 mm 0.00 in0.0 mm
06:29 AM 60.6°F15.9°C 54.7°F12.6°C 81% 5.4 mph NNW8.7 kmh NNW 10.1 mph16.3 kmh 30.14 in1020.7 mb 0.00 in0.0 mm 0.00 in0.0 mm 0.00 in0.0 mm
06:44 AM 60.8°F16.0°C 54.9°F12.7°C 81% 4.5 mph N7.2 kmh N 10.1 mph16.3 kmh 30.14 in1020.7 mb 0.00 in0.0 mm 0.00 in0.0 mm 0.00 in0.0 mm
06:59 AM 60.6°F15.9°C 54.7°F12.6°C 81% 3.8 mph NNW6.1 kmh NNW 7.6 mph12.2 kmh 30.14 in1020.7 mb 0.00 in0.0 mm 0.00 in0.0 mm 0.00 in0.0 mm
07:14 AM 60.6°F15.9°C 54.7°F12.6°C 81% 6.5 mph NNW10.5 kmh NNW 10.1 mph16.3 kmh 30.14 in1020.7 mb 0.00 in0.0 mm 0.00 in0.0 mm 0.00 in0.0 mm
07:29 AM 61.0°F16.1°C 54.5°F12.5°C 79% 4.7 mph NNW7.6 kmh NNW 7.6 mph12.2 kmh 30.15 in1021.0 mb 0.00 in0.0 mm 0.00 in0.0 mm 0.00 in0.0 mm
07:44 AM 61.7°F16.5°C 55.0°F12.8°C 79% 4.7 mph NNW7.6 kmh NNW 10.1 mph16.3 kmh 30.15 in1021.0 mb 0.00 in0.0 mm 0.00 in0.0 mm 0.00 in0.0 mm
07:59 AM 62.4°F16.9°C 55.8°F13.2°C 79% 6.5 mph N10.5 kmh N 10.1 mph16.3 kmh 30.15 in1021.0 mb 0.00 in0.0 mm 0.00 in0.0 mm 0.00 in0.0 mm
08:14 AM 63.0°F17.2°C 57.4°F14.1°C 82% 0.7 mph E1.1 kmh E 7.6 mph12.2 kmh 30.16 in1021.3 mb 0.00 in0.0 mm 0.00 in0.0 mm 0.00 in0.0 mm
08:29 AM 65.3°F18.5°C 57.9°F14.4°C 77% 0.7 mph ESE1.1 kmh ESE 4.9 mph7.9 kmh 30.16 in1021.3 mb 0.00 in0.0 mm 0.00 in0.0 mm 0.00 in0.0 mm
08:44 AM 68.5°F20.3°C 60.6°F15.9°C 76% 2.5 mph S4.0 kmh S 7.6 mph12.2 kmh 30.16 in1021.3 mb 0.00 in0.0 mm 0.00 in0.0 mm 0.00 in0.0 mm
08:59 AM 69.3°F20.7°C 61.7°F16.5°C 77% 0.9 mph SE1.4 kmh SE 10.1 mph16.3 kmh 30.16 in1021.3 mb 0.00 in0.0 mm 0.00 in0.0 mm 0.00 in0.0 mm
09:15 AM 68.9°F20.5°C 61.3°F16.3°C 77% 4.5 mph E7.2 kmh E 7.6 mph12.2 kmh 30.17 in1021.7 mb 0.00 in0.0 mm 0.00 in0.0 mm 0.00 in0.0 mm
09:30 AM 69.6°F20.9°C 62.1°F16.7°C 77% 3.8 mph SSE6.1 kmh SSE 7.6 mph12.2 kmh 30.17 in1021.7 mb 0.00 in0.0 mm 0.00 in0.0 mm 0.00 in0.0 mm
09:45 AM 69.1°F20.6°C 62.2°F16.8°C 79% 4.0 mph SE6.4 kmh SE 7.6 mph12.2 kmh 30.17 in1021.7 mb 0.00 in0.0 mm 0.00 in0.0 mm 0.00 in0.0 mm
10:00 AM 68.2°F20.1°C 61.7°F16.5°C 80% 4.5 mph SE7.2 kmh SE 7.6 mph12.2 kmh 30.18 in1022.0 mb 0.00 in0.0 mm 0.00 in0.0 mm 0.00 in0.0 mm
10:15 AM 67.8°F19.9°C 61.7°F16.5°C 81% 2.2 mph E3.5 kmh E 7.6 mph12.2 kmh 30.17 in1021.7 mb 0.00 in0.0 mm 0.00 in0.0 mm 0.00 in0.0 mm
10:30 AM 67.6°F19.8°C 61.9°F16.6°C 82% 4.0 mph SE6.4 kmh SE 10.1 mph16.3 kmh 30.17 in1021.7 mb 0.00 in0.0 mm 0.00 in0.0 mm 0.00 in0.0 mm
10:45 AM 68.0°F20.0°C 62.2°F16.8°C 82% 4.5 mph SSE7.2 kmh SSE 12.5 mph20.1 kmh 30.18 in1022.0 mb 0.00 in0.0 mm 0.00 in0.0 mm 0.00 in0.0 mm
11:00 AM 68.0°F20.0°C 62.6°F17.0°C 83% 6.5 mph S10.5 kmh S 12.5 mph20.1 kmh 30.18 in1022.0 mb 0.00 in0.0 mm 0.00 in0.0 mm 0.00 in0.0 mm
11:15 AM 67.6°F19.8°C 61.9°F16.6°C 82% 0.2 mph S0.3 kmh S 10.1 mph16.3 kmh 30.19 in1022.4 mb 0.00 in0.0 mm 0.00 in0.0 mm 0.00 in0.0 mm
11:30 AM 67.8°F19.9°C 61.7°F16.5°C 81% 0.9 mph S1.4 kmh S 7.6 mph12.2 kmh 30.19 in1022.4 mb 0.00 in0.0 mm 0.00 in0.0 mm 0.00 in0.0 mm
11:45 AM 68.2°F20.1°C 62.8°F17.1°C 83% 5.4 mph E8.7 kmh E 10.1 mph16.3 kmh 30.18 in1022.0 mb 0.00 in0.0 mm 0.00 in0.0 mm 0.00 in0.0 mm
12:00 PM 68.0°F20.0°C 62.2°F16.8°C 82% 6.9 mph SSE11.1 kmh SSE 12.5 mph20.1 kmh 30.18 in1022.0 mb 0.00 in0.0 mm 0.00 in0.0 mm 0.00 in0.0 mm
12:15 PM 68.4°F20.2°C 62.6°F17.0°C 82% 3.1 mph SE5.0 kmh SE 10.1 mph16.3 kmh 30.17 in1021.7 mb 0.00 in0.0 mm 0.00 in0.0 mm 0.00 in0.0 mm
12:30 PM 68.5°F20.3°C 63.1°F17.3°C 83% 3.4 mph ESE5.5 kmh ESE 10.1 mph16.3 kmh 30.18 in1022.0 mb 0.00 in0.0 mm 0.00 in0.0 mm 0.00 in0.0 mm
12:45 PM 68.2°F20.1°C 63.5°F17.5°C 85% 4.5 mph SSE7.2 kmh SSE 10.1 mph16.3 kmh 30.17 in1021.7 mb 0.00 in0.0 mm 0.00 in0.0 mm 0.00 in0.0 mm
01:00 PM 67.8°F19.9°C 62.8°F17.1°C 84% 6.0 mph SSE9.7 kmh SSE 10.1 mph16.3 kmh 30.16 in1021.3 mb 0.00 in0.0 mm 0.00 in0.0 mm 0.00 in0.0 mm
01:15 PM 67.8°F19.9°C 62.4°F16.9°C 83% 4.7 mph SSW7.6 kmh SSW 10.1 mph16.3 kmh 30.16 in1021.3 mb 0.00 in0.0 mm 0.00 in0.0 mm 0.00 in0.0 mm
01:30 PM 68.0°F20.0°C 63.3°F17.4°C 85% 2.5 mph S4.0 kmh S 10.1 mph16.3 kmh 30.16 in1021.3 mb 0.00 in0.0 mm 0.00 in0.0 mm 0.00 in0.0 mm
01:45 PM 67.8°F19.9°C 62.8°F17.1°C 84% 2.9 mph SSW4.7 kmh SSW 10.1 mph16.3 kmh 30.16 in1021.3 mb 0.00 in0.0 mm 0.00 in0.0 mm 0.00 in0.0 mm
02:00 PM 67.6°F19.8°C 62.6°F17.0°C 84% 6.3 mph SSE10.1 kmh SSE 10.1 mph16.3 kmh 30.16 in1021.3 mb 0.00 in0.0 mm 0.00 in0.0 mm 0.00 in0.0 mm
02:15 PM 67.5°F19.7°C 62.8°F17.1°C 85% 0.9 mph SSE1.4 kmh SSE 10.1 mph16.3 kmh 30.16 in1021.3 mb 0.00 in0.0 mm 0.00 in0.0 mm 0.00 in0.0 mm
02:30 PM 67.3°F19.6°C 63.0°F17.2°C 86% 4.9 mph SSE7.9 kmh SSE 10.1 mph16.3 kmh 30.16 in1021.3 mb 0.00 in0.0 mm 0.00 in0.0 mm 0.00 in0.0 mm
02:45 PM 67.3°F19.6°C 63.0°F17.2°C 86% 3.8 mph S6.1 kmh S 7.6 mph12.2 kmh 30.16 in1021.3 mb 0.00 in0.0 mm 0.00 in0.0 mm 0.00 in0.0 mm
03:00 PM 67.3°F19.6°C 62.6°F17.0°C 85% 4.9 mph ESE7.9 kmh ESE 10.1 mph16.3 kmh 30.15 in1021.0 mb 0.00 in0.0 mm 0.00 in0.0 mm 0.00 in0.0 mm
03:15 PM 67.1°F19.5°C 62.8°F17.1°C 86% 6.5 mph SSE10.5 kmh SSE 10.1 mph16.3 kmh 30.16 in1021.3 mb 0.00 in0.0 mm 0.00 in0.0 mm 0.00 in0.0 mm
03:30 PM 66.9°F19.4°C 63.0°F17.2°C 87% 3.1 mph S5.0 kmh S 10.1 mph16.3 kmh 30.16 in1021.3 mb 0.00 in0.0 mm 0.00 in0.0 mm 0.00 in0.0 mm
03:45 PM 66.7°F19.3°C 62.8°F17.1°C 87% 4.7 mph E7.6 kmh E 7.6 mph12.2 kmh 30.15 in1021.0 mb 0.00 in0.0 mm 0.00 in0.0 mm 0.00 in0.0 mm
04:00 PM 66.6°F19.2°C 62.6°F17.0°C 87% 3.1 mph SE5.0 kmh SE 7.6 mph12.2 kmh 30.15 in1021.0 mb 0.00 in0.0 mm 0.00 in0.0 mm 0.00 in0.0 mm
04:15 PM 66.4°F19.1°C 62.4°F16.9°C 87% 7.6 mph SSE12.2 kmh SSE 10.1 mph16.3 kmh 30.16 in1021.3 mb 0.00 in0.0 mm 0.00 in0.0 mm 0.00 in0.0 mm
04:30 PM 66.4°F19.1°C 62.4°F16.9°C 87% 4.5 mph SE7.2 kmh SE 10.1 mph16.3 kmh 30.16 in1021.3 mb 0.00 in0.0 mm 0.00 in0.0 mm 0.00 in0.0 mm
04:45 PM 66.4°F19.1°C 62.4°F16.9°C 87% 5.6 mph SSE9.0 kmh SSE 7.6 mph12.2 kmh 30.16 in1021.3 mb 0.00 in0.0 mm 0.00 in0.0 mm 0.00 in0.0 mm
05:00 PM 66.4°F19.1°C 62.4°F16.9°C 87% 1.6 mph SE2.6 kmh SE 7.6 mph12.2 kmh 30.16 in1021.3 mb 0.00 in0.0 mm 0.00 in0.0 mm 0.00 in0.0 mm
05:16 PM 66.6°F19.2°C 62.6°F17.0°C 87% 2.5 mph S4.0 kmh S 7.6 mph12.2 kmh 30.16 in1021.3 mb 0.00 in0.0 mm 0.00 in0.0 mm 0.00 in0.0 mm
05:31 PM 66.4°F19.1°C 62.8°F17.1°C 88% 4.0 mph S6.4 kmh S 7.6 mph12.2 kmh 30.16 in1021.3 mb 0.00 in0.0 mm 0.00 in0.0 mm 0.00 in0.0 mm
05:46 PM 66.0°F18.9°C 62.4°F16.9°C 88% 2.5 mph E4.0 kmh E 7.6 mph12.2 kmh 30.16 in1021.3 mb 0.00 in0.0 mm 0.00 in0.0 mm 0.00 in0.0 mm
06:01 PM 66.0°F18.9°C 62.4°F16.9°C 88% 0.2 mph S0.3 kmh S 7.6 mph12.2 kmh 30.16 in1021.3 mb 0.00 in0.0 mm 0.00 in0.0 mm 0.00 in0.0 mm
06:16 PM 65.8°F18.8°C 62.4°F16.9°C 89% 1.8 mph S2.9 kmh S 7.6 mph12.2 kmh 30.16 in1021.3 mb 0.00 in0.0 mm 0.00 in0.0 mm 0.00 in0.0 mm
06:31 PM 65.5°F18.6°C 62.2°F16.8°C 89% Calm Calm 7.6 mph12.2 kmh 30.16 in1021.3 mb 0.00 in0.0 mm 0.00 in0.0 mm 0.00 in0.0 mm
06:46 PM 65.5°F18.6°C 62.4°F16.9°C 90% 0.2 mph SSW0.3 kmh SSW 4.9 mph7.9 kmh 30.17 in1021.7 mb 0.00 in0.0 mm 0.00 in0.0 mm 0.00 in0.0 mm
07:01 PM 65.5°F18.6°C 62.4°F16.9°C 90% 2.5 mph SE4.0 kmh SE 10.1 mph16.3 kmh 30.17 in1021.7 mb 0.00 in0.0 mm 0.00 in0.0 mm 0.00 in0.0 mm
07:16 PM 65.3°F18.5°C 62.2°F16.8°C 90% 2.5 mph SSW4.0 kmh SSW 7.6 mph12.2 kmh 30.17 in1021.7 mb 0.00 in0.0 mm 0.00 in0.0 mm 0.00 in0.0 mm
07:31 PM 65.3°F18.5°C 62.2°F16.8°C 90% 0.9 mph ESE1.4 kmh ESE 4.9 mph7.9 kmh 30.17 in1021.7 mb 0.00 in0.0 mm 0.00 in0.0 mm 0.00 in0.0 mm
07:46 PM 65.3°F18.5°C 62.2°F16.8°C 90% 0.2 mph SSE0.3 kmh SSE 4.9 mph7.9 kmh 30.17 in1021.7 mb 0.00 in0.0 mm 0.00 in0.0 mm 0.00 in0.0 mm
08:01 PM 65.1°F18.4°C 62.4°F16.9°C 91% 1.6 mph SSE2.6 kmh SSE 7.6 mph12.2 kmh 30.18 in1022.0 mb 0.00 in0.0 mm 0.00 in0.0 mm 0.00 in0.0 mm
08:16 PM 65.1°F18.4°C 62.4°F16.9°C 91% Calm Calm 4.9 mph7.9 kmh 30.18 in1022.0 mb 0.00 in0.0 mm 0.00 in0.0 mm 0.00 in0.0 mm
08:31 PM 64.9°F18.3°C 62.2°F16.8°C 91% Calm Calm 7.6 mph12.2 kmh 30.19 in1022.4 mb 0.00 in0.0 mm 0.00 in0.0 mm 0.00 in0.0 mm
08:46 PM 64.9°F18.3°C 62.6°F17.0°C 92% 0.7 mph SE1.1 kmh SE 7.6 mph12.2 kmh 30.19 in1022.4 mb 0.00 in0.0 mm 0.00 in0.0 mm 0.00 in0.0 mm
09:01 PM 64.9°F18.3°C 62.6°F17.0°C 92% 0.2 mph SSW0.3 kmh SSW 7.6 mph12.2 kmh 30.19 in1022.4 mb 0.00 in0.0 mm 0.00 in0.0 mm 0.00 in0.0 mm
09:16 PM 64.8°F18.2°C 62.4°F16.9°C 92% Calm Calm 4.9 mph7.9 kmh 30.20 in1022.7 mb 0.00 in0.0 mm 0.00 in0.0 mm 0.00 in0.0 mm
09:31 PM 64.8°F18.2°C 62.4°F16.9°C 92% Calm Calm 2.5 mph4.0 kmh 30.20 in1022.7 mb 0.00 in0.0 mm 0.00 in0.0 mm 0.00 in0.0 mm
09:46 PM 64.8°F18.2°C 62.4°F16.9°C 92% Calm Calm 2.5 mph4.0 kmh 30.20 in1022.7 mb 0.00 in0.0 mm 0.00 in0.0 mm 0.00 in0.0 mm
10:01 PM 64.8°F18.2°C 62.4°F16.9°C 92% Calm Calm 2.5 mph4.0 kmh 30.21 in1023.0 mb 0.00 in0.0 mm 0.00 in0.0 mm 0.00 in0.0 mm
10:16 PM 64.8°F18.2°C 62.6°F17.0°C 93% Calm Calm 2.5 mph4.0 kmh 30.20 in1022.7 mb 0.00 in0.0 mm 0.00 in0.0 mm 0.00 in0.0 mm
10:31 PM 64.6°F18.1°C 62.4°F16.9°C 93% Calm Calm 2.5 mph4.0 kmh 30.20 in1022.7 mb 0.00 in0.0 mm 0.00 in0.0 mm 0.00 in0.0 mm
10:46 PM 64.2°F17.9°C 61.2°F16.2°C 90% 5.4 mph NNW8.7 kmh NNW 7.6 mph12.2 kmh 30.20 in1022.7 mb 0.00 in0.0 mm 0.00 in0.0 mm 0.00 in0.0 mm
11:01 PM 63.3°F17.4°C 59.0°F15.0°C 86% 4.0 mph NW6.4 kmh NW 7.6 mph12.2 kmh 30.20 in1022.7 mb 0.00 in0.0 mm 0.00 in0.0 mm 0.00 in0.0 mm
11:16 PM 63.0°F17.2°C 58.6°F14.8°C 86% 4.5 mph N7.2 kmh N 7.6 mph12.2 kmh 30.20 in1022.7 mb 0.00 in0.0 mm 0.00 in0.0 mm 0.00 in0.0 mm
11:31 PM 62.8°F17.1°C 58.5°F14.7°C 86% 4.7 mph N7.6 kmh N 7.6 mph12.2 kmh 30.19 in1022.4 mb 0.00 in0.0 mm 0.00 in0.0 mm 0.00 in0.0 mm
11:46 PM 62.6°F17.0°C 58.3°F14.6°C 86% 3.4 mph NNW5.5 kmh NNW 7.6 mph12.2 kmh 30.20 in1022.7 mb 0.00 in0.0 mm 0.00 in0.0 mm 0.00 in0.0 mm